sensor_id;sensor_type;location;lat;lon;timestamp;temperature;humidity
69543;SHT31;56762;49.494;11.768;2023-11-21T00:00:58;8.54;87.94
69543;SHT31;56762;49.494;11.768;2023-11-21T00:03:30;8.59;87.35
69543;SHT31;56762;49.494;11.768;2023-11-21T00:05:59;8.59;87.34
69543;SHT31;56762;49.494;11.768;2023-11-21T00:08:28;8.49;87.15
69543;SHT31;56762;49.494;11.768;2023-11-21T00:10:56;8.41;87.56
69543;SHT31;56762;49.494;11.768;2023-11-21T00:13:27;8.38;87.74
69543;SHT31;56762;49.494;11.768;2023-11-21T00:15:54;8.37;87.73
69543;SHT31;56762;49.494;11.768;2023-11-21T00:18:23;8.38;89.14
69543;SHT31;56762;49.494;11.768;2023-11-21T00:20:50;8.44;87.82
69543;SHT31;56762;49.494;11.768;2023-11-21T00:23:20;8.68;89.27
69543;SHT31;56762;49.494;11.768;2023-11-21T00:25:47;8.76;88.85
69543;SHT31;56762;49.494;11.768;2023-11-21T00:28:15;8.78;87.60
69543;SHT31;56762;49.494;11.768;2023-11-21T00:30:43;8.68;86.42
69543;SHT31;56762;49.494;11.768;2023-11-21T00:33:11;8.56;86.52
69543;SHT31;56762;49.494;11.768;2023-11-21T00:35:39;8.45;87.03
69543;SHT31;56762;49.494;11.768;2023-11-21T00:38:07;8.41;87.11
69543;SHT31;56762;49.494;11.768;2023-11-21T00:40:37;8.38;87.55
69543;SHT31;56762;49.494;11.768;2023-11-21T00:43:05;8.34;87.38
69543;SHT31;56762;49.494;11.768;2023-11-21T00:45:33;8.24;87.41
69543;SHT31;56762;49.494;11.768;2023-11-21T00:48:03;8.17;87.66
69543;SHT31;56762;49.494;11.768;2023-11-21T00:50:31;8.13;87.93
69543;SHT31;56762;49.494;11.768;2023-11-21T00:52:59;8.14;87.99
69543;SHT31;56762;49.494;11.768;2023-11-21T00:55:28;8.08;88.03
69543;SHT31;56762;49.494;11.768;2023-11-21T00:57:57;8.10;88.09
69543;SHT31;56762;49.494;11.768;2023-11-21T01:00:26;8.07;88.29
69543;SHT31;56762;49.494;11.768;2023-11-21T01:02:54;8.07;88.32
69543;SHT31;56762;49.494;11.768;2023-11-21T01:05:22;8.04;88.36
69543;SHT31;56762;49.494;11.768;2023-11-21T01:07:51;8.01;88.68
69543;SHT31;56762;49.494;11.768;2023-11-21T01:10:18;8.01;88.31
69543;SHT31;56762;49.494;11.768;2023-11-21T01:12:47;8.08;88.51
69543;SHT31;56762;49.494;11.768;2023-11-21T01:15:17;8.08;88.53
69543;SHT31;56762;49.494;11.768;2023-11-21T01:17:45;8.07;88.20
69543;SHT31;56762;49.494;11.768;2023-11-21T01:20:12;8.06;87.82
69543;SHT31;56762;49.494;11.768;2023-11-21T01:22:41;8.04;88.02
69543;SHT31;56762;49.494;11.768;2023-11-21T01:25:10;8.01;88.47
69543;SHT31;56762;49.494;11.768;2023-11-21T01:27:37;7.97;88.67
69543;SHT31;56762;49.494;11.768;2023-11-21T01:30:06;7.96;88.49
69543;SHT31;56762;49.494;11.768;2023-11-21T01:32:38;7.94;88.55
69543;SHT31;56762;49.494;11.768;2023-11-21T01:35:08;7.97;88.45
69543;SHT31;56762;49.494;11.768;2023-11-21T01:37:36;7.94;88.53
69543;SHT31;56762;49.494;11.768;2023-11-21T01:40:05;7.94;88.62
69543;SHT31;56762;49.494;11.768;2023-11-21T01:42:36;7.93;88.93
69543;SHT31;56762;49.494;11.768;2023-11-21T01:45:05;7.90;88.67
69543;SHT31;56762;49.494;11.768;2023-11-21T01:47:34;7.89;88.86
69543;SHT31;56762;49.494;11.768;2023-11-21T01:50:06;7.87;89.51
69543;SHT31;56762;49.494;11.768;2023-11-21T01:52:35;7.89;88.77
69543;SHT31;56762;49.494;11.768;2023-11-21T01:55:05;7.89;88.94
69543;SHT31;56762;49.494;11.768;2023-11-21T01:57:35;7.87;88.90
69543;SHT31;56762;49.494;11.768;2023-11-21T02:00:05;7.90;89.13
69543;SHT31;56762;49.494;11.768;2023-11-21T02:02:42;7.93;89.29
69543;SHT31;56762;49.494;11.768;2023-11-21T02:05:14;7.94;88.79
69543;SHT31;56762;49.494;11.768;2023-11-21T02:07:45;7.96;88.86
69543;SHT31;56762;49.494;11.768;2023-11-21T02:10:15;7.87;89.00
69543;SHT31;56762;49.494;11.768;2023-11-21T02:12:44;7.89;88.87
69543;SHT31;56762;49.494;11.768;2023-11-21T02:15:13;7.90;88.99
69543;SHT31;56762;49.494;11.768;2023-11-21T02:17:47;7.85;88.97
69543;SHT31;56762;49.494;11.768;2023-11-21T02:20:20;7.83;89.11
69543;SHT31;56762;49.494;11.768;2023-11-21T02:22:51;7.82;89.19
69543;SHT31;56762;49.494;11.768;2023-11-21T02:25:22;7.94;89.59
69543;SHT31;56762;49.494;11.768;2023-11-21T02:27:50;8.11;89.96
69543;SHT31;56762;49.494;11.768;2023-11-21T02:30:18;8.17;88.48
69543;SHT31;56762;49.494;11.768;2023-11-21T02:32:46;8.35;88.01
69543;SHT31;56762;49.494;11.768;2023-11-21T02:35:15;8.41;88.44
69543;SHT31;56762;49.494;11.768;2023-11-21T02:37:43;8.58;88.84
69543;SHT31;56762;49.494;11.768;2023-11-21T02:40:13;8.66;87.91
69543;SHT31;56762;49.494;11.768;2023-11-21T02:42:44;8.71;88.49
69543;SHT31;56762;49.494;11.768;2023-11-21T02:45:15;8.69;87.01
69543;SHT31;56762;49.494;11.768;2023-11-21T02:47:44;8.48;85.20
69543;SHT31;56762;49.494;11.768;2023-11-21T02:50:11;8.31;85.81
69543;SHT31;56762;49.494;11.768;2023-11-21T02:52:39;8.27;86.78
69543;SHT31;56762;49.494;11.768;2023-11-21T02:55:08;8.23;88.07
69543;SHT31;56762;49.494;11.768;2023-11-21T02:57:37;8.24;89.30
69543;SHT31;56762;49.494;11.768;2023-11-21T03:00:06;8.20;86.96
69543;SHT31;56762;49.494;11.768;2023-11-21T03:02:34;8.14;86.98
69543;SHT31;56762;49.494;11.768;2023-11-21T03:05:07;8.07;87.10
69543;SHT31;56762;49.494;11.768;2023-11-21T03:07:37;8.00;87.35
69543;SHT31;56762;49.494;11.768;2023-11-21T03:10:06;7.91;87.15
69543;SHT31;56762;49.494;11.768;2023-11-21T03:12:37;7.87;87.65
69543;SHT31;56762;49.494;11.768;2023-11-21T03:15:06;7.83;87.88
69543;SHT31;56762;49.494;11.768;2023-11-21T03:17:34;7.83;88.04
69543;SHT31;56762;49.494;11.768;2023-11-21T03:20:04;7.77;88.04
69543;SHT31;56762;49.494;11.768;2023-11-21T03:22:32;7.77;87.91
69543;SHT31;56762;49.494;11.768;2023-11-21T03:25:01;7.72;88.39
69543;SHT31;56762;49.494;11.768;2023-11-21T03:27:29;7.69;88.57
69543;SHT31;56762;49.494;11.768;2023-11-21T03:29:58;7.69;88.49
69543;SHT31;56762;49.494;11.768;2023-11-21T03:32:26;7.65;88.21
69543;SHT31;56762;49.494;11.768;2023-11-21T03:34:55;7.65;88.71
69543;SHT31;56762;49.494;11.768;2023-11-21T03:37:26;7.62;88.76
69543;SHT31;56762;49.494;11.768;2023-11-21T03:39:55;7.65;88.69
69543;SHT31;56762;49.494;11.768;2023-11-21T03:42:24;7.62;88.60
69543;SHT31;56762;49.494;11.768;2023-11-21T03:44:53;7.56;88.99
69543;SHT31;56762;49.494;11.768;2023-11-21T03:47:22;7.58;88.99
69543;SHT31;56762;49.494;11.768;2023-11-21T03:49:50;7.56;89.17
69543;SHT31;56762;49.494;11.768;2023-11-21T03:52:19;7.56;88.98
69543;SHT31;56762;49.494;11.768;2023-11-21T03:54:46;7.54;88.92
69543;SHT31;56762;49.494;11.768;2023-11-21T03:57:14;7.51;88.94
69543;SHT31;56762;49.494;11.768;2023-11-21T03:59:42;7.51;88.70
69543;SHT31;56762;49.494;11.768;2023-11-21T04:02:10;7.51;89.01
69543;SHT31;56762;49.494;11.768;2023-11-21T04:04:40;7.49;89.13
69543;SHT31;56762;49.494;11.768;2023-11-21T04:07:08;7.52;89.18
69543;SHT31;56762;49.494;11.768;2023-11-21T04:09:36;7.52;89.26
69543;SHT31;56762;49.494;11.768;2023-11-21T04:12:04;7.52;89.07
69543;SHT31;56762;49.494;11.768;2023-11-21T04:14:32;7.54;89.18
69543;SHT31;56762;49.494;11.768;2023-11-21T04:17:00;7.55;89.18
69543;SHT31;56762;49.494;11.768;2023-11-21T04:19:28;7.58;89.06
69543;SHT31;56762;49.494;11.768;2023-11-21T04:21:57;7.56;89.14
69543;SHT31;56762;49.494;11.768;2023-11-21T04:24:25;7.54;89.08
69543;SHT31;56762;49.494;11.768;2023-11-21T04:26:53;7.54;89.30
69543;SHT31;56762;49.494;11.768;2023-11-21T04:29:21;7.56;89.01
69543;SHT31;56762;49.494;11.768;2023-11-21T04:31:49;7.55;89.18
69543;SHT31;56762;49.494;11.768;2023-11-21T04:34:16;7.59;89.08
69543;SHT31;56762;49.494;11.768;2023-11-21T04:36:45;7.65;89.12
69543;SHT31;56762;49.494;11.768;2023-11-21T04:39:14;7.63;88.98
69543;SHT31;56762;49.494;11.768;2023-11-21T04:41:42;7.63;88.90
69543;SHT31;56762;49.494;11.768;2023-11-21T04:44:10;7.61;88.90
69543;SHT31;56762;49.494;11.768;2023-11-21T04:46:38;7.58;88.93
69543;SHT31;56762;49.494;11.768;2023-11-21T04:49:05;7.52;88.85
69543;SHT31;56762;49.494;11.768;2023-11-21T04:51:33;7.48;89.04
69543;SHT31;56762;49.494;11.768;2023-11-21T04:54:01;7.44;88.74
69543;SHT31;56762;49.494;11.768;2023-11-21T04:56:31;7.44;89.34
69543;SHT31;56762;49.494;11.768;2023-11-21T04:58:59;7.39;89.06
69543;SHT31;56762;49.494;11.768;2023-11-21T05:01:26;7.39;89.22
69543;SHT31;56762;49.494;11.768;2023-11-21T05:03:54;7.39;89.63
69543;SHT31;56762;49.494;11.768;2023-11-21T05:06:23;7.41;89.75
69543;SHT31;56762;49.494;11.768;2023-11-21T05:08:51;7.45;89.79
69543;SHT31;56762;49.494;11.768;2023-11-21T05:11:24;7.46;89.84
69543;SHT31;56762;49.494;11.768;2023-11-21T05:13:53;7.52;89.78
69543;SHT31;56762;49.494;11.768;2023-11-21T05:16:25;7.54;89.50
69543;SHT31;56762;49.494;11.768;2023-11-21T05:18:54;7.54;89.50
69543;SHT31;56762;49.494;11.768;2023-11-21T05:21:26;7.55;89.58
69543;SHT31;56762;49.494;11.768;2023-11-21T05:23:54;7.58;89.71
69543;SHT31;56762;49.494;11.768;2023-11-21T05:26:22;7.73;90.57
69543;SHT31;56762;49.494;11.768;2023-11-21T05:28:50;8.06;92.23
69543;SHT31;56762;49.494;11.768;2023-11-21T05:31:19;8.35;90.70
69543;SHT31;56762;49.494;11.768;2023-11-21T05:33:47;8.52;87.66
69543;SHT31;56762;49.494;11.768;2023-11-21T05:36:16;8.65;89.49
69543;SHT31;56762;49.494;11.768;2023-11-21T05:38:43;8.65;86.81
69543;SHT31;56762;49.494;11.768;2023-11-21T05:41:12;8.56;87.03
69543;SHT31;56762;49.494;11.768;2023-11-21T05:43:40;8.49;86.45
69543;SHT31;56762;49.494;11.768;2023-11-21T05:46:08;8.42;87.65
69543;SHT31;56762;49.494;11.768;2023-11-21T05:48:38;8.51;88.36
69543;SHT31;56762;49.494;11.768;2023-11-21T05:51:06;8.42;86.55
69543;SHT31;56762;49.494;11.768;2023-11-21T05:53:34;8.30;86.70
69543;SHT31;56762;49.494;11.768;2023-11-21T05:56:03;8.10;86.86
69543;SHT31;56762;49.494;11.768;2023-11-21T05:58:31;7.98;87.45
69543;SHT31;56762;49.494;11.768;2023-11-21T06:00:59;7.91;87.66
69543;SHT31;56762;49.494;11.768;2023-11-21T06:03:27;7.83;87.78
69543;SHT31;56762;49.494;11.768;2023-11-21T06:05:56;7.79;87.93
69543;SHT31;56762;49.494;11.768;2023-11-21T06:08:24;7.67;88.19
69543;SHT31;56762;49.494;11.768;2023-11-21T06:10:52;7.61;88.20
69543;SHT31;56762;49.494;11.768;2023-11-21T06:13:20;7.51;88.46
69543;SHT31;56762;49.494;11.768;2023-11-21T06:15:50;7.44;88.63
69543;SHT31;56762;49.494;11.768;2023-11-21T06:18:19;7.38;88.75
69543;SHT31;56762;49.494;11.768;2023-11-21T06:20:46;7.32;89.02
69543;SHT31;56762;49.494;11.768;2023-11-21T06:23:15;7.34;89.02
69543;SHT31;56762;49.494;11.768;2023-11-21T06:25:43;7.35;89.39
69543;SHT31;56762;49.494;11.768;2023-11-21T06:28:11;7.35;89.59
69543;SHT31;56762;49.494;11.768;2023-11-21T06:30:40;7.35;89.49
69543;SHT31;56762;49.494;11.768;2023-11-21T06:33:08;7.35;89.36
69543;SHT31;56762;49.494;11.768;2023-11-21T06:35:37;7.35;89.76
69543;SHT31;56762;49.494;11.768;2023-11-21T06:38:05;7.38;89.39
69543;SHT31;56762;49.494;11.768;2023-11-21T06:40:34;7.39;89.67
69543;SHT31;56762;49.494;11.768;2023-11-21T06:43:02;7.36;89.52
69543;SHT31;56762;49.494;11.768;2023-11-21T06:45:31;7.36;89.79
69543;SHT31;56762;49.494;11.768;2023-11-21T06:48:00;7.32;89.54
69543;SHT31;56762;49.494;11.768;2023-11-21T06:50:28;7.31;89.65
69543;SHT31;56762;49.494;11.768;2023-11-21T06:52:56;7.25;89.49
69543;SHT31;56762;49.494;11.768;2023-11-21T06:55:24;7.16;89.36
69543;SHT31;56762;49.494;11.768;2023-11-21T06:57:54;7.11;89.74
69543;SHT31;56762;49.494;11.768;2023-11-21T07:00:22;7.09;89.94
69543;SHT31;56762;49.494;11.768;2023-11-21T07:02:50;7.07;89.93
69543;SHT31;56762;49.494;11.768;2023-11-21T07:05:17;7.07;90.06
69543;SHT31;56762;49.494;11.768;2023-11-21T07:07:48;7.07;90.10
69543;SHT31;56762;49.494;11.768;2023-11-21T07:10:16;7.07;89.95
69543;SHT31;56762;49.494;11.768;2023-11-21T07:12:44;7.09;90.12
69543;SHT31;56762;49.494;11.768;2023-11-21T07:15:14;7.09;90.11
69543;SHT31;56762;49.494;11.768;2023-11-21T07:17:42;7.11;89.68
69543;SHT31;56762;49.494;11.768;2023-11-21T07:20:11;7.14;90.05
69543;SHT31;56762;49.494;11.768;2023-11-21T07:22:40;7.14;90.02
69543;SHT31;56762;49.494;11.768;2023-11-21T07:25:08;7.19;90.50
69543;SHT31;56762;49.494;11.768;2023-11-21T07:27:36;7.26;90.41
69543;SHT31;56762;49.494;11.768;2023-11-21T07:30:06;7.32;90.51
69543;SHT31;56762;49.494;11.768;2023-11-21T07:32:37;7.39;90.54
69543;SHT31;56762;49.494;11.768;2023-11-21T07:35:08;7.46;90.29
69543;SHT31;56762;49.494;11.768;2023-11-21T07:37:36;7.56;89.64
69543;SHT31;56762;49.494;11.768;2023-11-21T07:40:05;7.59;89.25
69543;SHT31;56762;49.494;11.768;2023-11-21T07:42:35;7.62;88.88
69543;SHT31;56762;49.494;11.768;2023-11-21T07:45:04;7.62;88.94
69543;SHT31;56762;49.494;11.768;2023-11-21T07:47:33;7.63;89.39
69543;SHT31;56762;49.494;11.768;2023-11-21T07:50:03;7.62;89.52
69543;SHT31;56762;49.494;11.768;2023-11-21T07:52:31;7.63;89.42
69543;SHT31;56762;49.494;11.768;2023-11-21T07:54:59;7.65;89.96
69543;SHT31;56762;49.494;11.768;2023-11-21T07:57:28;7.69;89.49
69543;SHT31;56762;49.494;11.768;2023-11-21T07:59:56;7.75;89.17
69543;SHT31;56762;49.494;11.768;2023-11-21T08:02:23;7.73;88.92
69543;SHT31;56762;49.494;11.768;2023-11-21T08:04:53;7.77;89.56
69543;SHT31;56762;49.494;11.768;2023-11-21T08:07:25;7.79;89.76
69543;SHT31;56762;49.494;11.768;2023-11-21T08:09:53;7.83;89.55
69543;SHT31;56762;49.494;11.768;2023-11-21T08:12:20;7.86;89.37
69543;SHT31;56762;49.494;11.768;2023-11-21T08:14:49;7.90;89.31
69543;SHT31;56762;49.494;11.768;2023-11-21T08:17:17;7.89;88.56
69543;SHT31;56762;49.494;11.768;2023-11-21T08:19:47;7.87;88.90
69543;SHT31;56762;49.494;11.768;2023-11-21T08:22:16;7.82;88.27
69543;SHT31;56762;49.494;11.768;2023-11-21T08:24:46;7.83;88.94
69543;SHT31;56762;49.494;11.768;2023-11-21T08:27:14;7.83;88.76
69543;SHT31;56762;49.494;11.768;2023-11-21T08:29:43;7.76;88.79
69543;SHT31;56762;49.494;11.768;2023-11-21T08:32:10;7.76;89.74
69543;SHT31;56762;49.494;11.768;2023-11-21T08:34:38;7.77;89.36
69543;SHT31;56762;49.494;11.768;2023-11-21T08:37:09;7.77;89.76
69543;SHT31;56762;49.494;11.768;2023-11-21T08:39:37;7.87;89.65
69543;SHT31;56762;49.494;11.768;2023-11-21T08:42:06;7.91;89.26
69543;SHT31;56762;49.494;11.768;2023-11-21T08:44:34;7.96;89.36
69543;SHT31;56762;49.494;11.768;2023-11-21T08:47:05;8.00;89.66
69543;SHT31;56762;49.494;11.768;2023-11-21T08:49:34;8.06;89.94
69543;SHT31;56762;49.494;11.768;2023-11-21T08:52:03;8.13;89.33
69543;SHT31;56762;49.494;11.768;2023-11-21T08:54:31;8.14;89.28
69543;SHT31;56762;49.494;11.768;2023-11-21T08:57:01;8.20;89.74
69543;SHT31;56762;49.494;11.768;2023-11-21T08:59:30;8.25;89.86
69543;SHT31;56762;49.494;11.768;2023-11-21T09:01:58;8.31;89.43
69543;SHT31;56762;49.494;11.768;2023-11-21T09:04:26;8.40;89.70
69543;SHT31;56762;49.494;11.768;2023-11-21T09:06:54;8.40;88.33
69543;SHT31;56762;49.494;11.768;2023-11-21T09:09:22;8.45;87.95
69543;SHT31;56762;49.494;11.768;2023-11-21T09:11:51;8.38;87.26
69543;SHT31;56762;49.494;11.768;2023-11-21T09:14:19;8.33;87.26
69543;SHT31;56762;49.494;11.768;2023-11-21T09:16:48;8.31;88.44
69543;SHT31;56762;49.494;11.768;2023-11-21T09:19:17;8.28;87.50
69543;SHT31;56762;49.494;11.768;2023-11-21T09:21:45;8.24;87.48
69543;SHT31;56762;49.494;11.768;2023-11-21T09:24:13;8.20;88.30
69543;SHT31;56762;49.494;11.768;2023-11-21T09:26:41;8.25;88.93
69543;SHT31;56762;49.494;11.768;2023-11-21T09:29:09;8.30;88.57
69543;SHT31;56762;49.494;11.768;2023-11-21T09:31:37;8.31;88.04
69543;SHT31;56762;49.494;11.768;2023-11-21T09:34:06;8.33;88.70
69543;SHT31;56762;49.494;11.768;2023-11-21T09:36:35;8.30;87.81
69543;SHT31;56762;49.494;11.768;2023-11-21T09:39:05;8.28;87.92
69543;SHT31;56762;49.494;11.768;2023-11-21T09:41:42;8.27;87.66
69543;SHT31;56762;49.494;11.768;2023-11-21T09:44:13;8.35;88.05
69543;SHT31;56762;49.494;11.768;2023-11-21T09:46:42;8.44;88.25
69543;SHT31;56762;49.494;11.768;2023-11-21T09:49:11;8.54;88.46
69543;SHT31;56762;49.494;11.768;2023-11-21T09:51:42;8.61;88.41
69543;SHT31;56762;49.494;11.768;2023-11-21T09:54:11;8.71;88.31
69543;SHT31;56762;49.494;11.768;2023-11-21T09:56:40;8.75;86.30
69543;SHT31;56762;49.494;11.768;2023-11-21T09:59:13;8.79;87.57
69543;SHT31;56762;49.494;11.768;2023-11-21T10:01:43;8.90;87.52
69543;SHT31;56762;49.494;11.768;2023-11-21T10:04:13;8.97;87.62
69543;SHT31;56762;49.494;11.768;2023-11-21T10:06:41;9.07;87.80
69543;SHT31;56762;49.494;11.768;2023-11-21T10:09:10;9.13;87.44
69543;SHT31;56762;49.494;11.768;2023-11-21T10:11:40;9.17;86.21
69543;SHT31;56762;49.494;11.768;2023-11-21T10:14:10;9.17;85.97
69543;SHT31;56762;49.494;11.768;2023-11-21T10:16:41;9.13;84.71
69543;SHT31;56762;49.494;11.768;2023-11-21T10:19:10;9.19;85.91
69543;SHT31;56762;49.494;11.768;2023-11-21T10:21:44;9.23;86.40
69543;SHT31;56762;49.494;11.768;2023-11-21T10:24:11;9.28;86.39
69543;SHT31;56762;49.494;11.768;2023-11-21T10:26:40;9.27;84.35
69543;SHT31;56762;49.494;11.768;2023-11-21T10:29:18;9.24;84.31
69543;SHT31;56762;49.494;11.768;2023-11-21T10:31:49;9.23;84.87
69543;SHT31;56762;49.494;11.768;2023-11-21T10:34:18;9.23;85.70
69543;SHT31;56762;49.494;11.768;2023-11-21T10:36:48;9.26;85.44
69543;SHT31;56762;49.494;11.768;2023-11-21T10:39:17;9.26;85.54
69543;SHT31;56762;49.494;11.768;2023-11-21T10:41:45;9.36;86.44
69543;SHT31;56762;49.494;11.768;2023-11-21T10:44:14;9.41;86.78
69543;SHT31;56762;49.494;11.768;2023-11-21T10:46:47;9.34;83.77
69543;SHT31;56762;49.494;11.768;2023-11-21T10:49:18;9.36;84.83
69543;SHT31;56762;49.494;11.768;2023-11-21T10:51:47;9.34;84.20
69543;SHT31;56762;49.494;11.768;2023-11-21T10:54:19;9.30;83.57
69543;SHT31;56762;49.494;11.768;2023-11-21T10:56:48;9.26;82.81
69543;SHT31;56762;49.494;11.768;2023-11-21T10:59:18;9.13;83.41
69543;SHT31;56762;49.494;11.768;2023-11-21T11:01:47;9.19;84.98
69543;SHT31;56762;49.494;11.768;2023-11-21T11:04:19;9.13;84.02
69543;SHT31;56762;49.494;11.768;2023-11-21T11:06:54;9.15;85.32
69543;SHT31;56762;49.494;11.768;2023-11-21T11:09:23;9.15;83.81
69543;SHT31;56762;49.494;11.768;2023-11-21T11:11:51;9.15;84.18
69543;SHT31;56762;49.494;11.768;2023-11-21T11:14:21;9.12;84.00
69543;SHT31;56762;49.494;11.768;2023-11-21T11:16:54;9.16;84.82
69543;SHT31;56762;49.494;11.768;2023-11-21T11:19:23;9.17;83.86
69543;SHT31;56762;49.494;11.768;2023-11-21T11:22:00;9.23;84.92
69543;SHT31;56762;49.494;11.768;2023-11-21T11:25:06;9.26;84.42
69543;SHT31;56762;49.494;11.768;2023-11-21T11:27:46;9.31;84.91
69543;SHT31;56762;49.494;11.768;2023-11-21T11:30:26;9.34;83.55
69543;SHT31;56762;49.494;11.768;2023-11-21T11:33:05;9.40;84.81
69543;SHT31;56762;49.494;11.768;2023-11-21T11:35:43;9.48;84.47
69543;SHT31;56762;49.494;11.768;2023-11-21T11:38:15;9.58;85.24
69543;SHT31;56762;49.494;11.768;2023-11-21T11:40:45;9.70;85.49
69543;SHT31;56762;49.494;11.768;2023-11-21T11:43:24;9.68;82.86
69543;SHT31;56762;49.494;11.768;2023-11-21T11:45:55;9.61;82.97
69543;SHT31;56762;49.494;11.768;2023-11-21T11:48:25;9.38;84.03
69543;SHT31;56762;49.494;11.768;2023-11-21T11:51:01;9.22;84.91
69543;SHT31;56762;49.494;11.768;2023-11-21T11:53:37;9.07;85.59
69543;SHT31;56762;49.494;11.768;2023-11-21T11:56:34;8.76;84.58
69543;SHT31;56762;49.494;11.768;2023-11-21T11:59:04;8.72;86.85
69543;SHT31;56762;49.494;11.768;2023-11-21T12:01:34;8.66;87.10
69543;SHT31;56762;49.494;11.768;2023-11-21T12:04:24;8.76;88.69
69543;SHT31;56762;49.494;11.768;2023-11-21T12:07:02;8.79;86.62
69543;SHT31;56762;49.494;11.768;2023-11-21T12:09:32;8.75;86.13
69543;SHT31;56762;49.494;11.768;2023-11-21T12:12:00;8.68;86.19
69543;SHT31;56762;49.494;11.768;2023-11-21T12:14:32;8.79;88.54
69543;SHT31;56762;49.494;11.768;2023-11-21T12:17:01;9.05;88.21
69543;SHT31;56762;49.494;11.768;2023-11-21T12:19:31;9.17;86.99
69543;SHT31;56762;49.494;11.768;2023-11-21T12:21:59;9.23;85.61
69543;SHT31;56762;49.494;11.768;2023-11-21T12:24:27;9.19;85.27
69543;SHT31;56762;49.494;11.768;2023-11-21T12:26:57;9.13;83.96
69543;SHT31;56762;49.494;11.768;2023-11-21T12:29:25;9.09;84.62
69543;SHT31;56762;49.494;11.768;2023-11-21T12:31:56;9.03;83.71
69543;SHT31;56762;49.494;11.768;2023-11-21T12:34:24;9.05;84.44
69543;SHT31;56762;49.494;11.768;2023-11-21T12:36:52;9.06;84.46
69543;SHT31;56762;49.494;11.768;2023-11-21T12:39:21;9.07;84.59
69543;SHT31;56762;49.494;11.768;2023-11-21T12:41:50;9.09;83.54
69543;SHT31;56762;49.494;11.768;2023-11-21T12:44:20;9.10;83.91
69543;SHT31;56762;49.494;11.768;2023-11-21T12:46:50;9.10;83.54
69543;SHT31;56762;49.494;11.768;2023-11-21T12:49:19;9.16;84.32
69543;SHT31;56762;49.494;11.768;2023-11-21T12:51:48;9.22;85.08
69543;SHT31;56762;49.494;11.768;2023-11-21T12:54:16;9.28;84.59
69543;SHT31;56762;49.494;11.768;2023-11-21T12:56:45;9.26;81.93
69543;SHT31;56762;49.494;11.768;2023-11-21T12:59:15;9.16;82.12
69543;SHT31;56762;49.494;11.768;2023-11-21T13:01:46;9.12;82.51
69543;SHT31;56762;49.494;11.768;2023-11-21T13:04:17;9.17;84.78
69543;SHT31;56762;49.494;11.768;2023-11-21T13:06:46;9.22;83.58
69543;SHT31;56762;49.494;11.768;2023-11-21T13:09:14;9.26;84.00
69543;SHT31;56762;49.494;11.768;2023-11-21T13:11:48;9.34;84.58
69543;SHT31;56762;49.494;11.768;2023-11-21T13:14:16;9.38;84.29
69543;SHT31;56762;49.494;11.768;2023-11-21T13:16:45;9.41;83.70
69543;SHT31;56762;49.494;11.768;2023-11-21T13:19:13;9.46;83.80
69543;SHT31;56762;49.494;11.768;2023-11-21T13:21:41;9.36;82.61
69543;SHT31;56762;49.494;11.768;2023-11-21T13:24:09;9.28;83.00
69543;SHT31;56762;49.494;11.768;2023-11-21T13:26:38;9.19;83.11
69543;SHT31;56762;49.494;11.768;2023-11-21T13:29:05;9.15;82.83
69543;SHT31;56762;49.494;11.768;2023-11-21T13:31:33;9.09;83.13
69543;SHT31;56762;49.494;11.768;2023-11-21T13:34:05;9.09;83.66
69543;SHT31;56762;49.494;11.768;2023-11-21T13:36:35;9.10;84.57
69543;SHT31;56762;49.494;11.768;2023-11-21T13:39:03;9.09;83.78
69543;SHT31;56762;49.494;11.768;2023-11-21T13:41:35;9.12;84.57
69543;SHT31;56762;49.494;11.768;2023-11-21T13:44:05;9.17;84.55
69543;SHT31;56762;49.494;11.768;2023-11-21T13:46:43;9.16;84.35
69543;SHT31;56762;49.494;11.768;2023-11-21T13:49:13;9.13;83.96
69543;SHT31;56762;49.494;11.768;2023-11-21T13:51:43;9.00;83.69
69543;SHT31;56762;49.494;11.768;2023-11-21T13:54:14;8.90;84.37
69543;SHT31;56762;49.494;11.768;2023-11-21T13:56:43;8.89;84.84
69543;SHT31;56762;49.494;11.768;2023-11-21T13:59:13;8.86;84.97
69543;SHT31;56762;49.494;11.768;2023-11-21T14:01:47;8.80;84.86
69543;SHT31;56762;49.494;11.768;2023-11-21T14:04:26;8.73;85.16
69543;SHT31;56762;49.494;11.768;2023-11-21T14:07:17;8.71;84.95
69543;SHT31;56762;49.494;11.768;2023-11-21T14:09:53;8.65;85.26
69543;SHT31;56762;49.494;11.768;2023-11-21T14:12:21;8.65;85.61
69543;SHT31;56762;49.494;11.768;2023-11-21T14:14:49;8.62;85.78
69543;SHT31;56762;49.494;11.768;2023-11-21T14:17:17;8.55;85.73
69543;SHT31;56762;49.494;11.768;2023-11-21T14:19:46;8.56;86.01
69543;SHT31;56762;49.494;11.768;2023-11-21T14:22:14;8.52;86.14
69543;SHT31;56762;49.494;11.768;2023-11-21T14:24:44;8.51;86.31
69543;SHT31;56762;49.494;11.768;2023-11-21T14:27:14;8.48;86.05
69543;SHT31;56762;49.494;11.768;2023-11-21T14:29:42;8.51;85.95
69543;SHT31;56762;49.494;11.768;2023-11-21T14:32:11;8.54;85.72
69543;SHT31;56762;49.494;11.768;2023-11-21T14:34:41;8.58;86.38
69543;SHT31;56762;49.494;11.768;2023-11-21T14:37:13;8.62;85.90
69543;SHT31;56762;49.494;11.768;2023-11-21T14:39:41;8.68;84.37
69543;SHT31;56762;49.494;11.768;2023-11-21T14:42:12;8.72;85.29
69543;SHT31;56762;49.494;11.768;2023-11-21T14:44:42;8.78;86.16
69543;SHT31;56762;49.494;11.768;2023-11-21T14:47:10;8.82;85.81
69543;SHT31;56762;49.494;11.768;2023-11-21T14:49:43;8.85;85.82
69543;SHT31;56762;49.494;11.768;2023-11-21T14:52:22;8.89;85.59
69543;SHT31;56762;49.494;11.768;2023-11-21T14:55:00;8.87;85.89
69543;SHT31;56762;49.494;11.768;2023-11-21T14:57:48;8.95;85.88
69543;SHT31;56762;49.494;11.768;2023-11-21T15:00:18;8.95;86.27
69543;SHT31;56762;49.494;11.768;2023-11-21T15:03:05;9.00;86.98
69543;SHT31;56762;49.494;11.768;2023-11-21T15:05:33;9.05;86.88
69543;SHT31;56762;49.494;11.768;2023-11-21T15:08:04;9.09;87.68
69543;SHT31;56762;49.494;11.768;2023-11-21T15:10:47;9.16;87.23
69543;SHT31;56762;49.494;11.768;2023-11-21T15:13:21;9.28;86.73
69543;SHT31;56762;49.494;11.768;2023-11-21T15:15:48;9.27;86.82
69543;SHT31;56762;49.494;11.768;2023-11-21T15:18:18;9.17;87.08
69543;SHT31;56762;49.494;11.768;2023-11-21T15:20:46;9.07;86.37
69543;SHT31;56762;49.494;11.768;2023-11-21T15:23:16;9.00;87.20
69543;SHT31;56762;49.494;11.768;2023-11-21T15:25:45;8.93;87.25
69543;SHT31;56762;49.494;11.768;2023-11-21T15:28:16;8.86;86.51
69543;SHT31;56762;49.494;11.768;2023-11-21T15:30:45;8.79;87.36
69543;SHT31;56762;49.494;11.768;2023-11-21T15:33:15;8.73;87.70
69543;SHT31;56762;49.494;11.768;2023-11-21T15:35:43;8.68;84.54
69543;SHT31;56762;49.494;11.768;2023-11-21T15:38:11;8.62;85.68
69543;SHT31;56762;49.494;11.768;2023-11-21T15:40:41;8.59;86.60
69543;SHT31;56762;49.494;11.768;2023-11-21T15:43:10;8.55;86.72
69543;SHT31;56762;49.494;11.768;2023-11-21T15:45:38;8.52;85.89